sensor_id;sensor_type;location;lat;lon;timestamp;P1;durP1;ratioP1;P2;durP2;ratioP2
23169;SDS011;11753;43.144;24.714;2023-04-03T00:00:50;3.72;;;2.03;;
23169;SDS011;11753;43.144;24.714;2023-04-03T00:01:50;3.95;;;2.00;;
23169;SDS011;11753;43.144;24.714;2023-04-03T00:02:51;3.50;;;2.13;;
23169;SDS011;11753;43.144;24.714;2023-04-03T00:03:52;3.92;;;2.00;;
23169;SDS011;11753;43.144;24.714;2023-04-03T00:04:53;4.20;;;2.17;;
23169;SDS011;11753;43.144;24.714;2023-04-03T00:05:53;5.28;;;2.35;;
23169;SDS011;11753;43.144;24.714;2023-04-03T00:06:54;4.22;;;2.38;;
23169;SDS011;11753;43.144;24.714;2023-04-03T00:07:55;4.60;;;2.30;;
23169;SDS011;11753;43.144;24.714;2023-04-03T00:08:56;4.10;;;2.38;;
23169;SDS011;11753;43.144;24.714;2023-04-03T00:09:57;4.28;;;2.25;;
23169;SDS011;11753;43.144;24.714;2023-04-03T00:10:58;4.13;;;2.25;;
23169;SDS011;11753;43.144;24.714;2023-04-03T00:11:59;4.78;;;2.30;;
23169;SDS011;11753;43.144;24.714;2023-04-03T00:13:00;4.78;;;2.45;;
23169;SDS011;11753;43.144;24.714;2023-04-03T00:14:01;5.82;;;2.42;;
23169;SDS011;11753;43.144;24.714;2023-04-03T00:15:02;5.03;;;2.67;;
23169;SDS011;11753;43.144;24.714;2023-04-03T00:16:04;4.72;;;2.85;;
23169;SDS011;11753;43.144;24.714;2023-04-03T00:17:05;4.63;;;2.40;;
23169;SDS011;11753;43.144;24.714;2023-04-03T00:18:06;4.85;;;2.28;;
23169;SDS011;11753;43.144;24.714;2023-04-03T00:19:07;6.03;;;2.30;;
23169;SDS011;11753;43.144;24.714;2023-04-03T00:20:08;3.42;;;2.17;;
23169;SDS011;11753;43.144;24.714;2023-04-03T00:21:10;4.88;;;2.33;;
23169;SDS011;11753;43.144;24.714;2023-04-03T00:22:13;4.82;;;2.60;;
23169;SDS011;11753;43.144;24.714;2023-04-03T00:23:14;4.40;;;2.30;;
23169;SDS011;11753;43.144;24.714;2023-04-03T00:24:15;4.20;;;2.40;;
23169;SDS011;11753;43.144;24.714;2023-04-03T00:25:16;4.35;;;2.03;;
23169;SDS011;11753;43.144;24.714;2023-04-03T00:26:17;3.38;;;2.20;;
23169;SDS011;11753;43.144;24.714;2023-04-03T00:27:18;3.47;;;2.10;;
23169;SDS011;11753;43.144;24.714;2023-04-03T00:28:20;3.53;;;1.90;;
23169;SDS011;11753;43.144;24.714;2023-04-03T00:29:21;3.80;;;2.20;;
23169;SDS011;11753;43.144;24.714;2023-04-03T00:30:23;3.45;;;1.95;;
23169;SDS011;11753;43.144;24.714;2023-04-03T00:31:24;5.55;;;2.28;;
23169;SDS011;11753;43.144;24.714;2023-04-03T00:32:25;5.03;;;2.25;;
23169;SDS011;11753;43.144;24.714;2023-04-03T00:33:26;3.50;;;2.05;;
23169;SDS011;11753;43.144;24.714;2023-04-03T00:34:27;4.10;;;2.40;;
23169;SDS011;11753;43.144;24.714;2023-04-03T00:35:28;3.78;;;2.20;;
23169;SDS011;11753;43.144;24.714;2023-04-03T00:36:29;2.92;;;1.83;;
23169;SDS011;11753;43.144;24.714;2023-04-03T00:37:30;6.88;;;2.20;;
23169;SDS011;11753;43.144;24.714;2023-04-03T00:38:31;4.45;;;2.30;;
23169;SDS011;11753;43.144;24.714;2023-04-03T00:39:32;3.63;;;2.20;;
23169;SDS011;11753;43.144;24.714;2023-04-03T00:40:36;4.70;;;2.45;;
23169;SDS011;11753;43.144;24.714;2023-04-03T00:41:40;4.38;;;2.17;;
23169;SDS011;11753;43.144;24.714;2023-04-03T00:42:41;4.00;;;2.63;;
23169;SDS011;11753;43.144;24.714;2023-04-03T00:43:43;3.65;;;2.55;;
23169;SDS011;11753;43.144;24.714;2023-04-03T00:45:52;4.57;;;2.40;;
23169;SDS011;11753;43.144;24.714;2023-04-03T00:46:57;6.13;;;2.53;;
23169;SDS011;11753;43.144;24.714;2023-04-03T00:47:58;5.05;;;2.40;;
23169;SDS011;11753;43.144;24.714;2023-04-03T00:49:01;3.10;;;1.95;;
23169;SDS011;11753;43.144;24.714;2023-04-03T00:50:02;3.92;;;2.10;;
23169;SDS011;11753;43.144;24.714;2023-04-03T00:51:04;3.97;;;2.08;;
23169;SDS011;11753;43.144;24.714;2023-04-03T00:52:09;3.70;;;2.03;;
23169;SDS011;11753;43.144;24.714;2023-04-03T00:53:16;2.60;;;1.90;;
23169;SDS011;11753;43.144;24.714;2023-04-03T00:54:20;3.78;;;2.15;;
23169;SDS011;11753;43.144;24.714;2023-04-03T00:55:21;4.35;;;1.98;;
23169;SDS011;11753;43.144;24.714;2023-04-03T00:56:23;3.95;;;2.35;;
23169;SDS011;11753;43.144;24.714;2023-04-03T00:57:27;4.45;;;2.08;;
23169;SDS011;11753;43.144;24.714;2023-04-03T00:58:33;3.67;;;2.25;;
23169;SDS011;11753;43.144;24.714;2023-04-03T00:59:42;4.60;;;2.60;;
23169;SDS011;11753;43.144;24.714;2023-04-03T01:00:48;4.07;;;2.20;;
23169;SDS011;11753;43.144;24.714;2023-04-03T01:02:59;3.83;;;2.05;;
23169;SDS011;11753;43.144;24.714;2023-04-03T01:04:01;4.53;;;2.20;;
23169;SDS011;11753;43.144;24.714;2023-04-03T01:05:03;5.40;;;2.40;;
23169;SDS011;11753;43.144;24.714;2023-04-03T01:06:05;3.60;;;2.28;;
23169;SDS011;11753;43.144;24.714;2023-04-03T01:07:16;4.30;;;2.38;;
23169;SDS011;11753;43.144;24.714;2023-04-03T01:08:19;3.20;;;2.00;;
23169;SDS011;11753;43.144;24.714;2023-04-03T01:09:20;5.05;;;2.25;;
23169;SDS011;11753;43.144;24.714;2023-04-03T01:10:22;4.45;;;2.40;;
23169;SDS011;11753;43.144;24.714;2023-04-03T01:11:23;4.40;;;2.38;;
23169;SDS011;11753;43.144;24.714;2023-04-03T01:12:25;3.15;;;2.00;;
23169;SDS011;11753;43.144;24.714;2023-04-03T01:13:31;4.78;;;2.20;;
23169;SDS011;11753;43.144;24.714;2023-04-03T01:14:33;3.97;;;1.88;;
23169;SDS011;11753;43.144;24.714;2023-04-03T01:15:34;4.30;;;2.40;;
23169;SDS011;11753;43.144;24.714;2023-04-03T01:16:35;3.05;;;2.03;;
23169;SDS011;11753;43.144;24.714;2023-04-03T01:18:42;3.70;;;2.22;;
23169;SDS011;11753;43.144;24.714;2023-04-03T01:19:45;3.92;;;2.00;;
23169;SDS011;11753;43.144;24.714;2023-04-03T01:22:15;3.67;;;2.20;;
23169;SDS011;11753;43.144;24.714;2023-04-03T01:23:25;4.47;;;2.28;;
23169;SDS011;11753;43.144;24.714;2023-04-03T01:24:34;6.10;;;2.50;;
23169;SDS011;11753;43.144;24.714;2023-04-03T01:25:40;3.97;;;2.38;;
23169;SDS011;11753;43.144;24.714;2023-04-03T01:26:45;3.92;;;2.20;;
23169;SDS011;11753;43.144;24.714;2023-04-03T01:27:46;4.18;;;2.35;;
23169;SDS011;11753;43.144;24.714;2023-04-03T01:28:47;3.88;;;2.20;;
23169;SDS011;11753;43.144;24.714;2023-04-03T01:29:48;4.82;;;2.13;;
23169;SDS011;11753;43.144;24.714;2023-04-03T01:32:27;3.83;;;2.30;;
23169;SDS011;11753;43.144;24.714;2023-04-03T01:33:28;4.18;;;2.20;;
23169;SDS011;11753;43.144;24.714;2023-04-03T01:34:30;3.22;;;1.95;;
23169;SDS011;11753;43.144;24.714;2023-04-03T01:35:31;3.67;;;2.05;;
23169;SDS011;11753;43.144;24.714;2023-04-03T01:36:31;4.05;;;2.20;;
23169;SDS011;11753;43.144;24.714;2023-04-03T01:37:32;3.67;;;2.30;;
23169;SDS011;11753;43.144;24.714;2023-04-03T01:38:33;3.83;;;2.08;;
23169;SDS011;11753;43.144;24.714;2023-04-03T01:39:34;3.30;;;2.17;;
23169;SDS011;11753;43.144;24.714;2023-04-03T01:40:35;4.60;;;2.30;;
23169;SDS011;11753;43.144;24.714;2023-04-03T01:41:36;3.70;;;2.03;;
23169;SDS011;11753;43.144;24.714;2023-04-03T01:42:37;3.50;;;1.75;;
23169;SDS011;11753;43.144;24.714;2023-04-03T01:43:38;4.35;;;2.40;;
23169;SDS011;11753;43.144;24.714;2023-04-03T01:44:39;4.25;;;2.00;;
23169;SDS011;11753;43.144;24.714;2023-04-03T01:45:40;4.55;;;2.35;;
23169;SDS011;11753;43.144;24.714;2023-04-03T01:46:41;3.47;;;2.35;;
23169;SDS011;11753;43.144;24.714;2023-04-03T01:47:42;4.85;;;2.20;;
23169;SDS011;11753;43.144;24.714;2023-04-03T01:48:43;3.80;;;2.28;;
23169;SDS011;11753;43.144;24.714;2023-04-03T01:49:44;7.10;;;2.13;;
23169;SDS011;11753;43.144;24.714;2023-04-03T01:50:45;3.63;;;2.10;;
23169;SDS011;11753;43.144;24.714;2023-04-03T01:51:46;3.92;;;2.13;;
23169;SDS011;11753;43.144;24.714;2023-04-03T01:52:47;4.88;;;2.15;;
23169;SDS011;11753;43.144;24.714;2023-04-03T01:53:48;3.67;;;2.20;;
23169;SDS011;11753;43.144;24.714;2023-04-03T01:54:49;5.80;;;2.40;;
23169;SDS011;11753;43.144;24.714;2023-04-03T01:55:50;4.18;;;2.47;;
23169;SDS011;11753;43.144;24.714;2023-04-03T01:56:51;5.80;;;2.30;;
23169;SDS011;11753;43.144;24.714;2023-04-03T01:57:51;3.88;;;2.30;;
23169;SDS011;11753;43.144;24.714;2023-04-03T01:58:52;4.18;;;1.90;;
23169;SDS011;11753;43.144;24.714;2023-04-03T01:59:53;3.30;;;2.13;;
23169;SDS011;11753;43.144;24.714;2023-04-03T02:00:55;4.72;;;2.30;;
23169;SDS011;11753;43.144;24.714;2023-04-03T02:01:56;4.78;;;2.13;;
23169;SDS011;11753;43.144;24.714;2023-04-03T02:02:57;4.13;;;2.17;;
23169;SDS011;11753;43.144;24.714;2023-04-03T02:03:58;3.70;;;2.08;;
23169;SDS011;11753;43.144;24.714;2023-04-03T02:04:59;4.63;;;2.50;;
23169;SDS011;11753;43.144;24.714;2023-04-03T02:06:00;3.47;;;2.40;;
23169;SDS011;11753;43.144;24.714;2023-04-03T02:07:01;4.50;;;2.22;;
23169;SDS011;11753;43.144;24.714;2023-04-03T02:08:01;4.25;;;2.00;;
23169;SDS011;11753;43.144;24.714;2023-04-03T02:09:02;3.33;;;1.90;;
23169;SDS011;11753;43.144;24.714;2023-04-03T02:10:05;4.40;;;2.33;;
23169;SDS011;11753;43.144;24.714;2023-04-03T02:11:06;5.43;;;2.40;;
23169;SDS011;11753;43.144;24.714;2023-04-03T02:12:07;4.53;;;2.70;;
23169;SDS011;11753;43.144;24.714;2023-04-03T02:13:07;4.55;;;2.20;;
23169;SDS011;11753;43.144;24.714;2023-04-03T02:14:08;4.05;;;2.30;;
23169;SDS011;11753;43.144;24.714;2023-04-03T02:15:09;3.45;;;2.15;;
23169;SDS011;11753;43.144;24.714;2023-04-03T02:16:10;5.45;;;2.40;;
23169;SDS011;11753;43.144;24.714;2023-04-03T02:17:13;5.03;;;2.33;;
23169;SDS011;11753;43.144;24.714;2023-04-03T02:18:14;5.15;;;2.50;;
23169;SDS011;11753;43.144;24.714;2023-04-03T02:19:15;4.68;;;2.00;;
23169;SDS011;11753;43.144;24.714;2023-04-03T02:20:16;5.05;;;2.47;;
23169;SDS011;11753;43.144;24.714;2023-04-03T02:21:17;3.92;;;1.95;;
23169;SDS011;11753;43.144;24.714;2023-04-03T02:22:18;3.20;;;2.20;;
23169;SDS011;11753;43.144;24.714;2023-04-03T02:23:20;5.32;;;2.50;;
23169;SDS011;11753;43.144;24.714;2023-04-03T02:24:21;4.25;;;2.50;;
23169;SDS011;11753;43.144;24.714;2023-04-03T02:25:22;3.78;;;2.22;;
23169;SDS011;11753;43.144;24.714;2023-04-03T02:26:23;4.78;;;2.85;;
23169;SDS011;11753;43.144;24.714;2023-04-03T02:27:24;5.13;;;2.47;;
23169;SDS011;11753;43.144;24.714;2023-04-03T02:28:24;3.95;;;2.13;;
23169;SDS011;11753;43.144;24.714;2023-04-03T02:29:25;4.70;;;2.40;;
23169;SDS011;11753;43.144;24.714;2023-04-03T02:30:26;4.45;;;2.75;;
23169;SDS011;11753;43.144;24.714;2023-04-03T02:31:27;4.07;;;2.15;;
23169;SDS011;11753;43.144;24.714;2023-04-03T02:32:28;4.00;;;2.08;;
23169;SDS011;11753;43.144;24.714;2023-04-03T02:33:29;3.97;;;1.90;;
23169;SDS011;11753;43.144;24.714;2023-04-03T02:34:31;3.65;;;2.40;;
23169;SDS011;11753;43.144;24.714;2023-04-03T02:35:32;5.00;;;2.60;;
23169;SDS011;11753;43.144;24.714;2023-04-03T02:36:32;3.53;;;2.30;;
23169;SDS011;11753;43.144;24.714;2023-04-03T02:37:33;5.22;;;2.30;;
23169;SDS011;11753;43.144;24.714;2023-04-03T02:38:35;3.15;;;2.00;;
23169;SDS011;11753;43.144;24.714;2023-04-03T02:39:36;3.38;;;2.10;;
23169;SDS011;11753;43.144;24.714;2023-04-03T02:40:37;3.80;;;2.05;;
23169;SDS011;11753;43.144;24.714;2023-04-03T02:41:38;4.43;;;2.63;;
23169;SDS011;11753;43.144;24.714;2023-04-03T02:42:39;3.95;;;2.45;;
23169;SDS011;11753;43.144;24.714;2023-04-03T02:43:40;4.43;;;2.20;;
23169;SDS011;11753;43.144;24.714;2023-04-03T02:44:40;3.25;;;2.13;;
23169;SDS011;11753;43.144;24.714;2023-04-03T02:45:41;4.30;;;2.50;;
23169;SDS011;11753;43.144;24.714;2023-04-03T02:46:42;4.07;;;2.38;;
23169;SDS011;11753;43.144;24.714;2023-04-03T02:47:43;3.45;;;2.30;;
23169;SDS011;11753;43.144;24.714;2023-04-03T02:48:44;4.07;;;2.00;;
23169;SDS011;11753;43.144;24.714;2023-04-03T02:49:45;2.88;;;1.98;;
23169;SDS011;11753;43.144;24.714;2023-04-03T02:50:46;4.20;;;2.40;;
23169;SDS011;11753;43.144;24.714;2023-04-03T02:51:47;5.13;;;2.35;;
23169;SDS011;11753;43.144;24.714;2023-04-03T02:52:48;5.82;;;2.50;;
23169;SDS011;11753;43.144;24.714;2023-04-03T02:53:49;6.43;;;3.42;;
23169;SDS011;11753;43.144;24.714;2023-04-03T02:54:51;28.13;;;11.75;;
23169;SDS011;11753;43.144;24.714;2023-04-03T02:55:51;34.55;;;13.77;;
23169;SDS011;11753;43.144;24.714;2023-04-03T02:56:52;19.92;;;8.75;;
23169;SDS011;11753;43.144;24.714;2023-04-03T02:57:52;7.18;;;3.75;;
23169;SDS011;11753;43.144;24.714;2023-04-03T02:58:53;4.65;;;2.78;;
23169;SDS011;11753;43.144;24.714;2023-04-03T02:59:54;4.55;;;2.78;;
23169;SDS011;11753;43.144;24.714;2023-04-03T03:00:55;5.00;;;2.85;;
23169;SDS011;11753;43.144;24.714;2023-04-03T03:01:56;5.80;;;2.35;;
23169;SDS011;11753;43.144;24.714;2023-04-03T03:02:57;4.40;;;2.28;;
23169;SDS011;11753;43.144;24.714;2023-04-03T03:03:59;4.55;;;2.25;;
23169;SDS011;11753;43.144;24.714;2023-04-03T03:05:03;3.33;;;2.10;;
23169;SDS011;11753;43.144;24.714;2023-04-03T03:06:05;3.25;;;2.20;;
23169;SDS011;11753;43.144;24.714;2023-04-03T03:07:06;3.88;;;2.17;;
23169;SDS011;11753;43.144;24.714;2023-04-03T03:08:07;4.82;;;2.42;;
23169;SDS011;11753;43.144;24.714;2023-04-03T03:09:08;3.42;;;2.45;;
23169;SDS011;11753;43.144;24.714;2023-04-03T03:10:09;4.80;;;2.50;;
23169;SDS011;11753;43.144;24.714;2023-04-03T03:11:10;5.50;;;2.50;;
23169;SDS011;11753;43.144;24.714;2023-04-03T03:12:11;4.55;;;2.67;;
23169;SDS011;11753;43.144;24.714;2023-04-03T03:13:12;5.00;;;2.20;;
23169;SDS011;11753;43.144;24.714;2023-04-03T03:14:13;8.77;;;2.40;;
23169;SDS011;11753;43.144;24.714;2023-04-03T03:15:14;5.78;;;2.70;;
23169;SDS011;11753;43.144;24.714;2023-04-03T03:16:16;4.15;;;2.35;;
23169;SDS011;11753;43.144;24.714;2023-04-03T03:17:17;5.40;;;2.67;;
23169;SDS011;11753;43.144;24.714;2023-04-03T03:18:18;3.30;;;2.10;;
23169;SDS011;11753;43.144;24.714;2023-04-03T03:19:19;4.32;;;2.58;;
23169;SDS011;11753;43.144;24.714;2023-04-03T03:20:20;4.35;;;3.00;;
23169;SDS011;11753;43.144;24.714;2023-04-03T03:21:21;5.80;;;2.50;;
23169;SDS011;11753;43.144;24.714;2023-04-03T03:22:22;3.95;;;2.47;;
23169;SDS011;11753;43.144;24.714;2023-04-03T03:23:23;6.28;;;2.90;;
23169;SDS011;11753;43.144;24.714;2023-04-03T03:24:26;5.00;;;2.58;;
23169;SDS011;11753;43.144;24.714;2023-04-03T03:25:26;6.30;;;2.70;;
23169;SDS011;11753;43.144;24.714;2023-04-03T03:26:27;4.35;;;2.55;;
23169;SDS011;11753;43.144;24.714;2023-04-03T03:27:28;5.55;;;2.65;;
23169;SDS011;11753;43.144;24.714;2023-04-03T03:28:29;4.25;;;2.65;;
23169;SDS011;11753;43.144;24.714;2023-04-03T03:29:30;4.80;;;2.70;;
23169;SDS011;11753;43.144;24.714;2023-04-03T03:30:31;4.82;;;2.67;;
23169;SDS011;11753;43.144;24.714;2023-04-03T03:31:32;4.40;;;2.80;;
23169;SDS011;11753;43.144;24.714;2023-04-03T03:32:33;6.47;;;2.22;;
23169;SDS011;11753;43.144;24.714;2023-04-03T03:33:34;5.13;;;2.53;;
23169;SDS011;11753;43.144;24.714;2023-04-03T03:34:35;5.03;;;2.60;;
23169;SDS011;11753;43.144;24.714;2023-04-03T03:35:36;3.90;;;2.47;;
23169;SDS011;11753;43.144;24.714;2023-04-03T03:36:37;7.45;;;2.42;;
23169;SDS011;11753;43.144;24.714;2023-04-03T03:37:38;4.05;;;2.40;;
23169;SDS011;11753;43.144;24.714;2023-04-03T03:38:39;3.95;;;2.40;;
23169;SDS011;11753;43.144;24.714;2023-04-03T03:39:40;5.05;;;2.90;;
23169;SDS011;11753;43.144;24.714;2023-04-03T03:40:40;6.13;;;3.28;;
23169;SDS011;11753;43.144;24.714;2023-04-03T03:41:41;5.35;;;3.13;;
23169;SDS011;11753;43.144;24.714;2023-04-03T03:42:41;5.85;;;2.85;;
23169;SDS011;11753;43.144;24.714;2023-04-03T03:43:42;7.70;;;2.92;;
23169;SDS011;11753;43.144;24.714;2023-04-03T03:44:43;5.05;;;2.92;;
23169;SDS011;11753;43.144;24.714;2023-04-03T03:45:44;5.28;;;2.95;;
23169;SDS011;11753;43.144;24.714;2023-04-03T03:46:46;5.97;;;2.80;;
23169;SDS011;11753;43.144;24.714;2023-04-03T03:47:47;8.90;;;2.83;;
23169;SDS011;11753;43.144;24.714;2023-04-03T03:48:48;3.45;;;2.42;;
23169;SDS011;11753;43.144;24.714;2023-04-03T03:49:52;6.07;;;2.67;;
23169;SDS011;11753;43.144;24.714;2023-04-03T03:50:53;8.75;;;2.80;;
23169;SDS011;11753;43.144;24.714;2023-04-03T03:51:54;4.43;;;2.60;;
23169;SDS011;11753;43.144;24.714;2023-04-03T03:52:55;3.15;;;2.03;;
23169;SDS011;11753;43.144;24.714;2023-04-03T03:53:56;5.18;;;2.45;;
23169;SDS011;11753;43.144;24.714;2023-04-03T03:54:57;4.57;;;2.33;;
23169;SDS011;11753;43.144;24.714;2023-04-03T03:55:58;5.45;;;2.78;;
23169;SDS011;11753;43.144;24.714;2023-04-03T03:56:59;3.95;;;2.40;;
23169;SDS011;11753;43.144;24.714;2023-04-03T03:58:00;6.38;;;2.70;;
23169;SDS011;11753;43.144;24.714;2023-04-03T03:59:01;5.65;;;2.83;;
23169;SDS011;11753;43.144;24.714;2023-04-03T04:00:02;5.03;;;2.60;;
23169;SDS011;11753;43.144;24.714;2023-04-03T04:01:04;4.03;;;2.33;;
23169;SDS011;11753;43.144;24.714;2023-04-03T04:02:07;4.57;;;2.50;;
23169;SDS011;11753;43.144;24.714;2023-04-03T04:03:08;4.60;;;2.35;;
23169;SDS011;11753;43.144;24.714;2023-04-03T04:04:09;5.70;;;3.50;;
23169;SDS011;11753;43.144;24.714;2023-04-03T04:05:10;5.57;;;3.20;;
23169;SDS011;11753;43.144;24.714;2023-04-03T04:06:11;7.38;;;3.10;;
23169;SDS011;11753;43.144;24.714;2023-04-03T04:07:12;5.22;;;3.30;;
23169;SDS011;11753;43.144;24.714;2023-04-03T04:08:13;5.30;;;2.67;;
23169;SDS011;11753;43.144;24.714;2023-04-03T04:09:14;4.22;;;2.63;;
23169;SDS011;11753;43.144;24.714;2023-04-03T04:10:15;4.15;;;2.47;;
23169;SDS011;11753;43.144;24.714;2023-04-03T04:11:16;6.90;;;3.00;;
23169;SDS011;11753;43.144;24.714;2023-04-03T04:12:17;4.28;;;2.38;;
23169;SDS011;11753;43.144;24.714;2023-04-03T04:13:17;5.38;;;2.60;;
23169;SDS011;11753;43.144;24.714;2023-04-03T04:14:19;4.88;;;2.47;;
23169;SDS011;11753;43.144;24.714;2023-04-03T04:15:20;4.75;;;2.67;;
23169;SDS011;11753;43.144;24.714;2023-04-03T04:16:22;6.05;;;3.17;;
23169;SDS011;11753;43.144;24.714;2023-04-03T04:17:22;6.22;;;2.80;;
23169;SDS011;11753;43.144;24.714;2023-04-03T04:18:23;6.97;;;3.45;;
23169;SDS011;11753;43.144;24.714;2023-04-03T04:19:25;6.25;;;3.00;;
23169;SDS011;11753;43.144;24.714;2023-04-03T04:20:26;6.35;;;3.08;;
23169;SDS011;11753;43.144;24.714;2023-04-03T04:21:27;5.25;;;3.05;;
23169;SDS011;11753;43.144;24.714;2023-04-03T04:22:27;10.68;;;2.95;;
23169;SDS011;11753;43.144;24.714;2023-04-03T04:23:29;10.25;;;3.03;;
23169;SDS011;11753;43.144;24.714;2023-04-03T04:24:30;4.45;;;2.67;;
23169;SDS011;11753;43.144;24.714;2023-04-03T04:25:31;5.07;;;2.85;;
23169;SDS011;11753;43.144;24.714;2023-04-03T04:26:33;7.30;;;2.88;;
23169;SDS011;11753;43.144;24.714;2023-04-03T04:27:33;4.60;;;2.70;;
23169;SDS011;11753;43.144;24.714;2023-04-03T04:28:35;6.25;;;2.85;;
23169;SDS011;11753;43.144;24.714;2023-04-03T04:29:36;5.57;;;2.85;;
23169;SDS011;11753;43.144;24.714;2023-04-03T04:30:37;8.27;;;3.35;;
23169;SDS011;11753;43.144;24.714;2023-04-03T04:31:38;6.35;;;3.25;;
23169;SDS011;11753;43.144;24.714;2023-04-03T04:32:40;6.10;;;3.03;;
23169;SDS011;11753;43.144;24.714;2023-04-03T04:33:41;5.22;;;3.10;;
23169;SDS011;11753;43.144;24.714;2023-04-03T04:34:42;4.68;;;3.10;;
23169;SDS011;11753;43.144;24.714;2023-04-03T04:35:43;8.35;;;3.15;;
23169;SDS011;11753;43.144;24.714;2023-04-03T04:36:44;4.40;;;2.85;;
23169;SDS011;11753;43.144;24.714;2023-04-03T04:37:44;5.55;;;2.90;;
23169;SDS011;11753;43.144;24.714;2023-04-03T04:38:46;5.20;;;2.90;;
23169;SDS011;11753;43.144;24.714;2023-04-03T04:39:47;4.65;;;2.80;;
23169;SDS011;11753;43.144;24.714;2023-04-03T04:40:48;5.85;;;3.15;;
23169;SDS011;11753;43.144;24.714;2023-04-03T04:41:48;5.45;;;2.58;;
23169;SDS011;11753;43.144;24.714;2023-04-03T04:42:50;5.55;;;2.80;;
23169;SDS011;11753;43.144;24.714;2023-04-03T04:43:51;5.78;;;2.58;;
23169;SDS011;11753;43.144;24.714;2023-04-03T04:44:52;4.35;;;2.80;;
23169;SDS011;11753;43.144;24.714;2023-04-03T04:46:03;5.50;;;2.50;;
23169;SDS011;11753;43.144;24.714;2023-04-03T04:47:05;7.07;;;3.30;;
23169;SDS011;11753;43.144;24.714;2023-04-03T04:48:07;5.90;;;3.20;;
23169;SDS011;11753;43.144;24.714;2023-04-03T04:49:09;6.10;;;3.00;;
23169;SDS011;11753;43.144;24.714;2023-04-03T04:50:10;5.70;;;3.05;;
23169;SDS011;11753;43.144;24.714;2023-04-03T04:51:11;4.78;;;2.40;;
23169;SDS011;11753;43.144;24.714;2023-04-03T04:52:13;6.75;;;3.15;;
23169;SDS011;11753;43.144;24.714;2023-04-03T04:53:14;7.45;;;3.05;;
23169;SDS011;11753;43.144;24.714;2023-04-03T04:54:15;7.95;;;3.20;;
23169;SDS011;11753;43.144;24.714;2023-04-03T04:55:16;6.65;;;3.25;;
23169;SDS011;11753;43.144;24.714;2023-04-03T04:56:17;6.53;;;3.58;;
23169;SDS011;11753;43.144;24.714;2023-04-03T04:57:17;6.63;;;2.88;;
23169;SDS011;11753;43.144;24.714;2023-04-03T04:58:18;5.93;;;3.40;;
23169;SDS011;11753;43.144;24.714;2023-04-03T04:59:19;5.20;;;2.90;;
23169;SDS011;11753;43.144;24.714;2023-04-03T05:00:21;5.75;;;3.20;;
23169;SDS011;11753;43.144;24.714;2023-04-03T05:01:22;4.30;;;2.90;;
23169;SDS011;11753;43.144;24.714;2023-04-03T05:02:23;5.45;;;2.63;;
23169;SDS011;11753;43.144;24.714;2023-04-03T05:03:24;7.85;;;3.10;;
23169;SDS011;11753;43.144;24.714;2023-04-03T05:04:25;4.60;;;2.83;;
23169;SDS011;11753;43.144;24.714;2023-04-03T05:05:26;5.28;;;2.70;;
23169;SDS011;11753;43.144;24.714;2023-04-03T05:06:27;5.35;;;2.50;;
23169;SDS011;11753;43.144;24.714;2023-04-03T05:07:28;5.00;;;3.30;;
23169;SDS011;11753;43.144;24.714;2023-04-03T05:08:29;5.55;;;2.75;;
23169;SDS011;11753;43.144;24.714;2023-04-03T05:09:30;4.65;;;2.30;;
23169;SDS011;11753;43.144;24.714;2023-04-03T05:10:31;4.43;;;2.38;;
23169;SDS011;11753;43.144;24.714;2023-04-03T05:11:33;3.47;;;2.53;;
23169;SDS011;11753;43.144;24.714;2023-04-03T05:12:33;5.10;;;2.55;;
23169;SDS011;11753;43.144;24.714;2023-04-03T05:13:34;6.32;;;2.80;;
23169;SDS011;11753;43.144;24.714;2023-04-03T05:14:35;5.18;;;2.50;;
23169;SDS011;11753;43.144;24.714;2023-04-03T05:15:36;4.97;;;2.25;;
23169;SDS011;11753;43.144;24.714;2023-04-03T05:16:37;6.28;;;2.78;;
23169;SDS011;11753;43.144;24.714;2023-04-03T05:17:38;5.82;;;2.50;;
23169;SDS011;11753;43.144;24.714;2023-04-03T05:18:39;5.85;;;2.45;;
23169;SDS011;11753;43.144;24.714;2023-04-03T05:19:40;9.75;;;2.90;;
23169;SDS011;11753;43.144;24.714;2023-04-03T05:20:41;7.68;;;2.97;;
23169;SDS011;11753;43.144;24.714;2023-04-03T05:21:43;5.53;;;3.00;;
23169;SDS011;11753;43.144;24.714;2023-04-03T05:22:44;4.70;;;2.20;;
23169;SDS011;11753;43.144;24.714;2023-04-03T05:23:45;5.10;;;2.70;;
23169;SDS011;11753;43.144;24.714;2023-04-03T05:24:46;5.28;;;2.80;;
23169;SDS011;11753;43.144;24.714;2023-04-03T05:25:47;8.00;;;3.35;;
23169;SDS011;11753;43.144;24.714;2023-04-03T05:26:49;5.63;;;2.55;;
23169;SDS011;11753;43.144;24.714;2023-04-03T05:27:50;6.32;;;2.92;;
23169;SDS011;11753;43.144;24.714;2023-04-03T05:28:50;5.60;;;2.83;;
23169;SDS011;11753;43.144;24.714;2023-04-03T05:29:52;9.40;;;5.32;;
23169;SDS011;11753;43.144;24.714;2023-04-03T05:30:54;7.68;;;3.80;;
23169;SDS011;11753;43.144;24.714;2023-04-03T05:31:55;6.15;;;3.60;;
23169;SDS011;11753;43.144;24.714;2023-04-03T05:32:56;15.50;;;9.18;;
23169;SDS011;11753;43.144;24.714;2023-04-03T05:33:58;27.50;;;16.38;;
23169;SDS011;11753;43.144;24.714;2023-04-03T05:34:59;10.50;;;6.43;;
23169;SDS011;11753;43.144;24.714;2023-04-03T05:36:03;8.63;;;4.10;;
23169;SDS011;11753;43.144;24.714;2023-04-03T05:37:05;10.27;;;4.90;;
23169;SDS011;11753;43.144;24.714;2023-04-03T05:38:06;7.55;;;4.10;;
23169;SDS011;11753;43.144;24.714;2023-04-03T05:39:07;8.68;;;4.60;;
23169;SDS011;11753;43.144;24.714;2023-04-03T05:40:09;6.85;;;3.60;;
23169;SDS011;11753;43.144;24.714;2023-04-03T05:41:10;12.07;;;6.38;;
23169;SDS011;11753;43.144;24.714;2023-04-03T05:42:10;9.30;;;5.25;;
23169;SDS011;11753;43.144;24.714;2023-04-03T05:43:12;9.43;;;5.03;;
23169;SDS011;11753;43.144;24.714;2023-04-03T05:44:12;8.45;;;4.07;;
23169;SDS011;11753;43.144;24.714;2023-04-03T05:45:13;6.55;;;3.47;;
23169;SDS011;11753;43.144;24.714;2023-04-03T05:46:15;6.18;;;3.63;;
23169;SDS011;11753;43.144;24.714;2023-04-03T05:47:18;7.63;;;3.28;;
23169;SDS011;11753;43.144;24.714;2023-04-03T05:48:19;5.18;;;2.42;;
23169;SDS011;11753;43.144;24.714;2023-04-03T05:49:20;5.97;;;2.75;;
23169;SDS011;11753;43.144;24.714;2023-04-03T05:50:21;8.30;;;3.70;;
23169;SDS011;11753;43.144;24.714;2023-04-03T05:51:24;6.50;;;2.85;;
23169;SDS011;11753;43.144;24.714;2023-04-03T05:52:33;6.57;;;3.92;;
23169;SDS011;11753;43.144;24.714;2023-04-03T05:53:37;7.05;;;3.35;;
23169;SDS011;11753;43.144;24.714;2023-04-03T05:54:38;6.68;;;4.03;;
23169;SDS011;11753;43.144;24.714;2023-04-03T05:55:39;10.07;;;5.95;;
23169;SDS011;11753;43.144;24.714;2023-04-03T05:56:40;8.45;;;4.93;;
23169;SDS011;11753;43.144;24.714;2023-04-03T05:57:41;7.75;;;3.90;;
23169;SDS011;11753;43.144;24.714;2023-04-03T05:58:42;5.68;;;3.58;;
23169;SDS011;11753;43.144;24.714;2023-04-03T05:59:43;8.63;;;3.40;;
23169;SDS011;11753;43.144;24.714;2023-04-03T06:00:44;5.95;;;3.22;;
23169;SDS011;11753;43.144;24.714;2023-04-03T06:01:45;21.30;;;12.90;;
23169;SDS011;11753;43.144;24.714;2023-04-03T06:02:47;15.75;;;8.35;;
23169;SDS011;11753;43.144;24.714;2023-04-03T06:03:47;7.30;;;4.80;;
23169;SDS011;11753;43.144;24.714;2023-04-03T06:04:48;18.05;;;10.50;;
23169;SDS011;11753;43.144;24.714;2023-04-03T06:05:50;12.30;;;6.43;;
23169;SDS011;11753;43.144;24.714;2023-04-03T06:06:52;13.43;;;7.40;;
23169;SDS011;11753;43.144;24.714;2023-04-03T06:07:55;10.95;;;6.55;;
23169;SDS011;11753;43.144;24.714;2023-04-03T06:08:57;11.32;;;5.50;;
23169;SDS011;11753;43.144;24.714;2023-04-03T06:09:57;9.10;;;5.57;;
23169;SDS011;11753;43.144;24.714;2023-04-03T06:10:58;10.48;;;6.15;;